createdAt,value
2023-10-25T00:01:11.656Z,14.33
2023-10-25T00:04:14.260Z,14.36
2023-10-25T00:07:18.427Z,14.38
2023-10-25T00:10:21.073Z,14.35
2023-10-25T00:13:23.294Z,14.47
2023-10-25T00:16:25.888Z,14.57
2023-10-25T00:19:28.201Z,14.64
2023-10-25T00:22:30.887Z,14.57
2023-10-25T00:25:33.140Z,14.57
2023-10-25T00:28:35.702Z,14.56
2023-10-25T00:31:38.589Z,14.56
2023-10-25T00:34:42.621Z,14.58
2023-10-25T00:37:44.996Z,14.62
2023-10-25T00:40:47.587Z,14.68
2023-10-25T00:43:50.262Z,14.72
2023-10-25T00:46:53.630Z,14.68
2023-10-25T00:49:56.054Z,14.57
2023-10-25T00:52:58.857Z,14.63
2023-10-25T00:56:03.180Z,14.65
2023-10-25T00:59:07.562Z,14.63
2023-10-25T01:02:12.647Z,14.58
2023-10-25T01:05:16.555Z,14.62
2023-10-25T01:08:21.038Z,14.52
2023-10-25T01:11:23.752Z,14.56
2023-10-25T01:14:32.389Z,14.59
2023-10-25T01:17:35.169Z,14.69
2023-10-25T01:20:37.483Z,14.61
2023-10-25T01:23:40.018Z,14.67
2023-10-25T01:26:42.469Z,14.57
2023-10-25T01:29:45.074Z,14.38
2023-10-25T01:32:48.674Z,14.53
2023-10-25T01:35:53.786Z,14.56
2023-10-25T01:38:56.181Z,14.52
2023-10-25T01:41:59.293Z,14.54
2023-10-25T01:45:02.457Z,14.54
2023-10-25T01:48:05.621Z,14.51
2023-10-25T01:51:08.013Z,14.58
2023-10-25T01:54:10.738Z,14.53
2023-10-25T01:57:13.946Z,14.53
2023-10-25T02:00:16.988Z,14.52
2023-10-25T02:03:20.618Z,14.58
2023-10-25T02:06:24.021Z,14.62
2023-10-25T02:09:26.609Z,14.63
2023-10-25T02:12:29.012Z,14.67
2023-10-25T02:15:32.542Z,14.64
2023-10-25T02:18:34.784Z,14.62
2023-10-25T02:21:37.724Z,14.73
2023-10-25T02:24:40.142Z,14.66
2023-10-25T02:27:45.065Z,14.57
2023-10-25T02:30:47.397Z,14.55
2023-10-25T02:33:51.208Z,14.56
2023-10-25T02:36:53.658Z,14.58
2023-10-25T02:39:56.362Z,14.57
2023-10-25T02:42:58.692Z,14.67
2023-10-25T02:46:03.770Z,14.55
2023-10-25T02:49:06.239Z,14.52
2023-10-25T02:52:09.043Z,14.55
2023-10-25T02:55:12.443Z,14.68
2023-10-25T02:58:16.009Z,14.68
2023-10-25T03:01:27.890Z,14.54
2023-10-25T03:04:30.647Z,14.51
2023-10-25T03:07:33.073Z,14.60
2023-10-25T03:10:35.669Z,14.59
2023-10-25T03:13:38.507Z,14.58
2023-10-25T03:16:41.547Z,14.59
2023-10-25T03:19:44.240Z,14.65
2023-10-25T03:22:47.002Z,14.85
2023-10-25T03:25:49.282Z,14.70
2023-10-25T03:28:52.334Z,14.64
2023-10-25T03:31:59.312Z,14.64
2023-10-25T03:35:02.343Z,14.59
2023-10-25T03:38:04.609Z,14.62
2023-10-25T03:41:09.182Z,14.55
2023-10-25T03:44:12.171Z,14.54
2023-10-25T03:47:14.930Z,14.41
2023-10-25T03:50:17.400Z,14.13
2023-10-25T03:53:20.129Z,14.02
2023-10-25T03:56:22.402Z,13.92
2023-10-25T03:59:24.945Z,13.90
2023-10-25T04:02:29.279Z,13.78
2023-10-25T04:05:31.839Z,13.75
2023-10-25T04:08:34.502Z,13.68
2023-10-25T04:11:37.003Z,13.71
2023-10-25T04:14:45.726Z,13.68
2023-10-25T04:17:48.394Z,13.65
2023-10-25T04:20:50.683Z,13.59
2023-10-25T04:23:53.225Z,13.55
2023-10-25T04:26:55.439Z,13.52
2023-10-25T04:29:57.952Z,13.53
2023-10-25T04:33:00.408Z,13.47
2023-10-25T04:36:03.014Z,13.45
2023-10-25T04:39:05.842Z,13.40
2023-10-25T04:42:10.215Z,13.40
2023-10-25T04:45:13.576Z,13.39
2023-10-25T04:48:16.516Z,13.35
2023-10-25T04:51:19.222Z,13.26
2023-10-25T04:54:22.654Z,13.10
2023-10-25T04:57:24.991Z,13.16
2023-10-25T05:00:29.232Z,13.17
2023-10-25T05:03:31.674Z,13.18
2023-10-25T05:06:34.797Z,13.20
2023-10-25T05:09:37.481Z,13.20
2023-10-25T05:12:45.793Z,13.17
2023-10-25T05:15:48.421Z,13.14
2023-10-25T05:18:51.441Z,13.06
2023-10-25T05:21:55.890Z,13.11
2023-10-25T05:24:58.723Z,13.08
2023-10-25T05:28:02.589Z,13.03
2023-10-25T05:31:07.191Z,13.05
2023-10-25T05:34:10.632Z,13.03
2023-10-25T05:37:13.550Z,13.03
2023-10-25T05:40:16.751Z,13.03
2023-10-25T05:43:24.661Z,13.02
2023-10-25T05:46:27.005Z,13.00
2023-10-25T05:49:29.769Z,13.04
2023-10-25T05:52:32.288Z,13.00
2023-10-25T05:55:35.229Z,13.11
2023-10-25T05:58:37.686Z,13.10
2023-10-25T06:01:50.714Z,13.14
2023-10-25T06:04:56.489Z,13.11
2023-10-25T06:08:00.130Z,13.15
2023-10-25T06:11:03.080Z,13.23
2023-10-25T06:14:09.088Z,13.25
2023-10-25T06:17:11.676Z,13.28
2023-10-25T06:20:20.397Z,13.27
2023-10-25T06:23:23.014Z,13.33
2023-10-25T06:26:25.592Z,13.35
2023-10-25T06:29:28.306Z,13.41
2023-10-25T06:32:30.717Z,13.49
2023-10-25T06:35:40.456Z,13.48
2023-10-25T06:38:43.676Z,13.52
2023-10-25T06:41:46.572Z,13.62
2023-10-25T06:44:49.209Z,13.71
2023-10-25T06:47:52.604Z,13.81
2023-10-25T06:50:59.970Z,13.83
2023-10-25T06:54:04.623Z,13.89
2023-10-25T06:57:07.365Z,13.98
2023-10-25T07:00:10.682Z,14.07
2023-10-25T07:03:14.557Z,14.09
2023-10-25T07:06:19.300Z,14.21
2023-10-25T07:09:22.392Z,14.32
2023-10-25T07:12:24.945Z,14.49
2023-10-25T07:15:27.560Z,14.52
2023-10-25T07:18:30.189Z,14.52
2023-10-25T07:21:32.422Z,14.53
2023-10-25T07:24:34.871Z,14.57
2023-10-25T07:27:40.136Z,14.68
2023-10-25T07:30:43.018Z,14.56
2023-10-25T07:33:45.256Z,14.47
2023-10-25T07:36:47.834Z,14.49
2023-10-25T07:39:50.035Z,14.63
2023-10-25T07:42:52.739Z,14.70
2023-10-25T07:45:56.687Z,14.77
2023-10-25T07:48:59.835Z,14.70
2023-10-25T07:52:03.329Z,14.67
2023-10-25T07:55:37.198Z,14.69
2023-10-25T07:58:29.906Z,14.65
2023-10-25T08:01:32.723Z,14.64
2023-10-25T08:04:35.373Z,14.49
2023-10-25T08:07:37.869Z,14.55
2023-10-25T08:10:40.585Z,14.44
2023-10-25T08:13:44.304Z,14.51
2023-10-25T08:16:47.002Z,14.61
2023-10-25T08:19:49.448Z,14.80
2023-10-25T08:22:52.243Z,14.63
2023-10-25T08:25:54.751Z,14.62
2023-10-25T08:28:57.297Z,14.58
2023-10-25T08:31:59.521Z,14.70
2023-10-25T08:35:02.788Z,14.88
2023-10-25T08:38:06.671Z,14.83
2023-10-25T08:41:11.059Z,14.96
2023-10-25T08:44:13.700Z,14.93
2023-10-25T08:47:16.245Z,15.00
2023-10-25T08:50:21.431Z,14.87
2023-10-25T08:53:28.953Z,15.03
2023-10-25T08:56:31.272Z,15.11
2023-10-25T08:59:48.345Z,15.15
2023-10-25T09:02:57.805Z,15.27
2023-10-25T09:06:06.189Z,15.31
2023-10-25T09:09:10.264Z,15.27
2023-10-25T09:12:23.803Z,15.24
2023-10-25T09:15:30.777Z,15.29
2023-10-25T09:18:35.069Z,15.35
2023-10-25T09:21:38.152Z,15.38
2023-10-25T09:24:51.596Z,15.37
2023-10-25T09:27:53.907Z,15.46
2023-10-25T09:31:01.097Z,15.38
2023-10-25T09:34:09.399Z,15.51
2023-10-25T09:37:12.229Z,15.55
2023-10-25T09:40:15.075Z,15.65
2023-10-25T09:43:27.620Z,15.66
2023-10-25T09:46:32.595Z,15.72
2023-10-25T09:49:42.437Z,15.84
2023-10-25T09:52:50.583Z,15.97
2023-10-25T09:56:01.565Z,16.13
2023-10-25T09:59:07.516Z,16.26
2023-10-25T10:02:16.352Z,16.26
2023-10-25T10:05:31.132Z,16.41
2023-10-25T10:09:06.755Z,16.61
2023-10-25T10:12:12.995Z,16.84
2023-10-25T10:15:17.622Z,16.88
2023-10-25T10:18:20.752Z,16.75
2023-10-25T10:21:23.115Z,17.06
2023-10-25T10:24:42.920Z,17.19
2023-10-25T10:27:45.251Z,17.27
2023-10-25T10:30:48.871Z,17.43
2023-10-25T10:33:51.213Z,17.78
2023-10-25T10:37:07.770Z,17.99
2023-10-25T10:40:09.868Z,18.11
2023-10-25T10:43:12.392Z,18.28
2023-10-25T10:46:15.231Z,18.14
2023-10-25T10:49:21.016Z,17.92
2023-10-25T10:52:23.414Z,17.58
2023-10-25T10:55:26.550Z,17.67
2023-10-25T10:58:30.917Z,17.72
2023-10-25T11:01:33.751Z,17.80
2023-10-25T11:04:36.060Z,17.82
2023-10-25T11:07:38.652Z,17.72
2023-10-25T11:10:41.055Z,17.69
2023-10-25T11:13:44.215Z,17.66
2023-10-25T11:16:46.877Z,17.69
2023-10-25T11:19:49.587Z,17.75
2023-10-25T11:22:52.199Z,17.89
2023-10-25T11:25:56.537Z,17.96
2023-10-25T11:28:59.338Z,18.09
2023-10-25T11:32:07.565Z,18.22
2023-10-25T11:35:21.983Z,18.43
2023-10-25T11:38:26.354Z,18.47
2023-10-25T11:41:28.920Z,18.49
2023-10-25T11:44:31.730Z,18.57
2023-10-25T11:47:35.096Z,18.55
2023-10-25T11:50:38.280Z,18.54
2023-10-25T11:53:40.833Z,18.47
2023-10-25T11:56:43.519Z,18.50
2023-10-25T11:59:46.033Z,18.38
2023-10-25T12:02:48.676Z,18.39
2023-10-25T12:05:51.268Z,18.43
2023-10-25T12:08:53.623Z,18.34
2023-10-25T12:11:56.350Z,18.17
2023-10-25T12:14:59.015Z,18.21
2023-10-25T12:18:03.808Z,18.43
2023-10-25T12:21:07.397Z,18.63
2023-10-25T12:24:10.508Z,18.69
2023-10-25T12:27:12.984Z,18.76
2023-10-25T12:30:15.495Z,18.45
2023-10-25T12:33:18.087Z,18.41
2023-10-25T12:36:20.781Z,18.41
2023-10-25T12:39:23.061Z,18.38
2023-10-25T12:42:25.701Z,18.43
2023-10-25T12:45:29.522Z,18.51
2023-10-25T12:48:33.994Z,18.41
2023-10-25T12:51:37.070Z,18.42
2023-10-25T12:54:39.682Z,18.47
2023-10-25T12:57:41.948Z,18.67
2023-10-25T13:00:46.742Z,18.67
2023-10-25T13:03:49.155Z,18.75
2023-10-25T13:06:54.141Z,18.88
2023-10-25T13:10:02.442Z,18.71
2023-10-25T13:13:07.019Z,18.58
2023-10-25T13:16:09.810Z,18.56
2023-10-25T13:19:13.034Z,18.47
2023-10-25T13:22:15.666Z,18.35
2023-10-25T13:25:18.697Z,18.28
2023-10-25T13:28:21.272Z,18.21
2023-10-25T13:31:23.993Z,18.26
2023-10-25T13:34:26.231Z,18.20
2023-10-25T13:37:28.899Z,18.11
2023-10-25T13:40:31.800Z,17.99
2023-10-25T13:43:34.931Z,17.85
2023-10-25T13:46:37.232Z,17.86
2023-10-25T13:49:40.612Z,17.87
2023-10-25T13:52:42.963Z,17.99
2023-10-25T13:55:46.253Z,18.03
2023-10-25T13:58:48.603Z,17.99
2023-10-25T14:01:51.202Z,18.03
2023-10-25T14:04:53.930Z,17.95
2023-10-25T14:07:56.129Z,17.93
2023-10-25T14:10:58.886Z,17.80
2023-10-25T14:14:01.180Z,17.73
2023-10-25T14:17:03.915Z,17.74
2023-10-25T14:20:07.093Z,17.64
2023-10-25T14:23:10.052Z,17.52
2023-10-25T14:26:12.321Z,17.39
2023-10-25T14:29:15.045Z,17.38
2023-10-25T14:32:17.866Z,17.36
2023-10-25T14:35:20.674Z,17.17
2023-10-25T14:38:22.935Z,17.20
2023-10-25T14:41:26.277Z,17.20
2023-10-25T14:44:28.626Z,17.18
2023-10-25T14:47:31.600Z,17.13
2023-10-25T14:50:38.874Z,17.13
2023-10-25T14:53:41.639Z,17.10
2023-10-25T14:56:44.435Z,17.03
2023-10-25T14:59:49.076Z,16.87
2023-10-25T15:02:54.252Z,16.77
2023-10-25T15:05:57.517Z,16.63
2023-10-25T15:09:00.205Z,16.50
2023-10-25T15:12:03.361Z,16.35
2023-10-25T15:15:06.532Z,16.23
2023-10-25T15:18:09.168Z,16.11
2023-10-25T15:21:16.346Z,15.98
2023-10-25T15:24:18.977Z,15.87
2023-10-25T15:27:21.266Z,15.80
2023-10-25T15:30:23.945Z,15.70
2023-10-25T15:33:26.260Z,15.64
2023-10-25T15:36:28.860Z,15.54
2023-10-25T15:39:32.457Z,15.46
2023-10-25T15:42:37.184Z,15.39
2023-10-25T15:45:42.498Z,15.32
2023-10-25T15:48:47.855Z,15.29
2023-10-25T15:51:50.680Z,15.22
2023-10-25T15:54:53.215Z,15.14
2023-10-25T15:57:55.527Z,15.01
2023-10-25T16:04:05.829Z,14.76
2023-10-25T16:07:08.360Z,14.66
2023-10-25T16:10:11.142Z,14.60
2023-10-25T16:13:13.377Z,14.53
2023-10-25T16:16:16.339Z,14.47
2023-10-25T16:19:19.176Z,14.41
2023-10-25T16:22:21.721Z,14.34
2023-10-25T16:25:23.992Z,14.28
2023-10-25T16:28:26.609Z,14.23
2023-10-25T16:31:30.319Z,14.13
2023-10-25T16:34:32.870Z,14.08
2023-10-25T16:37:35.297Z,14.01
2023-10-25T16:40:39.094Z,13.97
2023-10-25T16:43:42.564Z,13.94
2023-10-25T16:46:45.257Z,13.87
2023-10-25T16:49:47.496Z,13.87
2023-10-25T16:52:53.535Z,13.90
2023-10-25T16:55:55.757Z,13.93
2023-10-25T16:58:58.304Z,13.99
2023-10-25T17:02:01.484Z,14.03
2023-10-25T17:05:04.906Z,14.02
2023-10-25T17:08:07.194Z,14.00
2023-10-25T17:11:10.338Z,13.98
2023-10-25T17:14:12.588Z,13.91
2023-10-25T17:17:15.175Z,13.86
2023-10-25T17:20:17.549Z,13.86
2023-10-25T17:23:23.372Z,13.84
2023-10-25T17:26:25.807Z,13.80
2023-10-25T17:29:29.083Z,13.78
2023-10-25T17:32:31.356Z,13.78
2023-10-25T17:35:34.030Z,13.77
2023-10-25T17:38:37.428Z,13.75
2023-10-25T17:41:40.625Z,13.71
2023-10-25T17:44:44.036Z,13.69
2023-10-25T17:47:54.151Z,13.65
2023-10-25T17:50:56.956Z,13.70
2023-10-25T17:53:59.689Z,13.74
2023-10-25T17:57:02.098Z,13.75
2023-10-25T18:00:05.322Z,13.81
2023-10-25T18:03:08.606Z,13.82
2023-10-25T18:06:11.039Z,13.85
2023-10-25T18:09:13.598Z,13.86
2023-10-25T18:12:15.976Z,13.84
2023-10-25T18:15:18.630Z,13.79
2023-10-25T18:18:21.301Z,13.83
2023-10-25T18:21:24.043Z,13.82
2023-10-25T18:24:26.721Z,13.81
2023-10-25T18:27:32.907Z,13.72
2023-10-25T18:31:55.927Z,13.65
2023-10-25T18:33:57.816Z,13.64
2023-10-25T18:37:00.209Z,13.77
2023-10-25T18:40:02.858Z,13.85
2023-10-25T18:43:05.278Z,13.95
2023-10-25T18:46:10.110Z,13.97
2023-10-25T18:49:14.624Z,13.92
2023-10-25T18:52:17.508Z,14.08
2023-10-25T18:55:19.779Z,14.02
2023-10-25T18:58:22.217Z,14.05
2023-10-25T19:01:24.742Z,14.08
2023-10-25T19:04:27.304Z,14.11
2023-10-25T19:07:29.663Z,14.16
2023-10-25T19:10:32.978Z,14.15
2023-10-25T19:13:36.353Z,14.09
2023-10-25T19:16:39.265Z,14.09
2023-10-25T19:19:48.639Z,14.06
2023-10-25T19:22:55.528Z,14.01
2023-10-25T19:25:57.759Z,13.98
2023-10-25T19:29:02.194Z,13.98
2023-10-25T19:32:04.933Z,14.01
2023-10-25T19:35:07.817Z,13.97
2023-10-25T19:38:10.633Z,13.86
2023-10-25T19:41:13.236Z,13.91
2023-10-25T19:44:15.921Z,13.94
2023-10-25T19:47:20.309Z,13.96
2023-10-25T19:50:22.646Z,14.02
2023-10-25T19:53:25.304Z,13.97
2023-10-25T19:56:30.361Z,13.93
2023-10-25T19:59:32.990Z,13.95
2023-10-25T20:02:35.318Z,13.87
2023-10-25T20:05:38.032Z,13.82
2023-10-25T20:08:40.308Z,13.78
2023-10-25T20:11:43.126Z,13.76
2023-10-25T20:14:45.618Z,13.78
2023-10-25T20:17:48.444Z,13.79
2023-10-25T20:20:51.450Z,13.82
2023-10-25T20:24:01.148Z,13.79
2023-10-25T20:27:04.188Z,13.75
2023-10-25T20:30:07.721Z,13.72
2023-10-25T20:33:10.396Z,13.70
2023-10-25T20:36:13.156Z,13.71
2023-10-25T20:39:15.441Z,13.70
2023-10-25T20:42:18.248Z,13.73
2023-10-25T20:45:20.547Z,13.74
2023-10-25T20:48:23.373Z,13.74
2023-10-25T20:51:25.856Z,13.76
2023-10-25T20:54:28.457Z,13.75
2023-10-25T20:57:30.740Z,13.76
2023-10-25T21:00:33.207Z,13.71
2023-10-25T21:03:35.609Z,13.68
2023-10-25T21:06:38.479Z,13.66
2023-10-25T21:09:40.822Z,13.59
2023-10-25T21:12:44.092Z,13.51
2023-10-25T21:15:49.999Z,13.48
2023-10-25T21:18:53.292Z,13.42
2023-10-25T21:21:58.947Z,13.27
2023-10-25T21:25:01.511Z,13.20
2023-10-25T21:28:04.281Z,13.13
2023-10-25T21:31:09.348Z,13.08
2023-10-25T21:34:11.788Z,12.98
2023-10-25T21:37:14.443Z,12.80
2023-10-25T21:40:16.794Z,12.79
2023-10-25T21:43:19.338Z,12.84
2023-10-25T21:46:21.674Z,12.79
2023-10-25T21:49:24.285Z,12.65
2023-10-25T21:52:26.659Z,12.53
2023-10-25T21:55:31.911Z,12.53
2023-10-25T21:59:45.256Z,12.58
2023-10-25T22:01:56.884Z,12.49
2023-10-25T22:04:59.422Z,12.47
2023-10-25T22:08:01.704Z,12.48
2023-10-25T22:11:04.621Z,12.44
2023-10-25T22:14:07.486Z,12.57
2023-10-25T22:17:10.004Z,12.75
2023-10-25T22:20:13.140Z,12.82
2023-10-25T22:23:15.756Z,12.94
2023-10-25T22:26:18.071Z,12.98
2023-10-25T22:29:20.659Z,13.06
2023-10-25T22:32:22.977Z,13.09
2023-10-25T22:35:25.534Z,13.08
2023-10-25T22:38:28.516Z,12.99
2023-10-25T22:41:31.156Z,12.79
2023-10-25T22:44:33.600Z,12.77
2023-10-25T22:47:36.215Z,12.79
2023-10-25T22:50:38.585Z,12.73
2023-10-25T22:53:41.096Z,12.70
2023-10-25T22:56:43.556Z,12.53
2023-10-25T22:59:46.275Z,12.49
2023-10-25T23:02:48.607Z,12.46
2023-10-25T23:05:51.251Z,12.48
2023-10-25T23:08:53.520Z,12.49
2023-10-25T23:11:57.826Z,12.44
2023-10-25T23:15:00.309Z,12.40
2023-10-25T23:18:04.087Z,12.36
2023-10-25T23:21:06.472Z,12.18
2023-10-25T23:24:09.360Z,12.19
2023-10-25T23:27:11.726Z,12.22
2023-10-25T23:30:14.837Z,12.18
2023-10-25T23:33:17.096Z,12.14
2023-10-25T23:36:19.710Z,12.06
2023-10-25T23:39:22.129Z,12.02
2023-10-25T23:42:24.709Z,11.93
2023-10-25T23:45:27.007Z,11.75
2023-10-25T23:48:29.828Z,11.63
2023-10-25T23:51:32.200Z,11.67
2023-10-25T23:54:51.217Z,11.69
2023-10-25T23:57:57.291Z,11.71
